Nearby METAR Reports

 

EGPN - Dundee/Riverside, United Kingdom
Distance from station: SSE 10km
Updated: 20/06/2024 09:50
Mostly cloudy
Mostly cloudy
 Wind from SW
Wind: SW 9 mph , 15 km/h
Temperature: 15°C
Dew Point: 11°C
Humidity: 77%
Barometer: 1018 hPa
Clouds: Mostly cloudy
Visibility: 6 miles , 10 km
Cloud details: Few Clouds 549 m
Mostly cloudy 1097 m
2024/06/20 08:50 EGPN 200850Z 23008KT 9999 FEW018 BKN036 15/11 Q1018
EGQL - Leuchars Raf, United Kingdom
Distance from station: SE 21km
Updated: 20/06/2024 09:50
Mostly cloudy
Mostly cloudy
 Wind from SW
Wind: SW 10 mph , 17 km/h
Temperature: 16°C
Dew Point: 11°C
Humidity: 72%
Barometer: 1018 hPa
Clouds: Mostly cloudy
Visibility: 6 miles , 10 km
Cloud details: Mostly cloudy 1006 m
Mostly cloudy 1158 m
2024/06/20 08:50 EGQL 200850Z 23009KT 9999 BKN033 BKN038 16/11 Q1018 RMK BLU
 
EGPH - Edinburgh Airpor, United Kingdom
Distance from station: SSW 67km
Updated: 20/06/2024 09:50
Mostly cloudy
Mostly cloudy
 Wind from SW
Wind: SW 14 mph , 22 km/h
Temperature: 16°C
Dew Point: 12°C
Humidity: 77%
Barometer: 1019 hPa
Clouds: Mostly cloudy
Visibility: 6 miles , 10 km
Cloud details: Mostly cloudy 975 m
2024/06/20 08:50 EGPH 200850Z 23012KT 9999 BKN032 16/12 Q1019
EGPD - Aberdeen/Dyce, United Kingdom
Distance from station: NE 91km
Updated: 20/06/2024 09:50
Mostly cloudy
Mostly cloudy
 Wind from SSE
Wind: SSE 6 mph , 9 km/h
Temperature: 17°C
Dew Point: 9°C
Humidity: 59%
Barometer: 1018 hPa
Clouds: Mostly cloudy
Visibility: 6 miles , 10 km
Cloud details: Mostly cloudy 975 m
2024/06/20 08:50 EGPD 200850Z AUTO 15005KT 090V210 9999 BKN032 17/09 Q1018
 
EGPF - Glasgow Airport, United Kingdom
Distance from station: SW 111km
Updated: 20/06/2024 09:50
Overcast
Overcast
 Wind from SSW
Wind: SSW 8 mph , 13 km/h
Temperature: 15°C
Dew Point: 11°C
Humidity: 77%
Barometer: 1019 hPa
Clouds: Overcast
Visibility: 6 miles , 10 km
Cloud details: Mostly cloudy 396 m
Overcast 1250 m
2024/06/20 08:50 EGPF 200850Z AUTO 21007KT 180V240 9999 BKN013 OVC041 15/11 Q1019
EGPE - Inverness/Dalcro, United Kingdom
Distance from station: NNW 124km
Updated: 20/06/2024 09:50
Few Clouds
Few Clouds
 Wind from WSW
Wind: WSW 8 mph , 13 km/h
Temperature: 16°C
Dew Point: 9°C
Humidity: 63%
Barometer: 1018 hPa
Clouds: Few Clouds
Visibility: 6 miles , 10 km
Cloud details: Few Clouds 610 m
2024/06/20 08:50 EGPE 200850Z 25007KT 200V280 9999 FEW020 16/09 Q1018
 
EGQK - Kinloss Raf, United Kingdom
Distance from station: NNW 128km
Updated: 20/06/2024 09:50
Clear
Clear
 Wind from WNW
Wind: WNW 12 mph , 19 km/h
Temperature: 16°C
Dew Point: 10°C
Humidity: 68%
Barometer: 1017 hPa
Clouds: Clear
Visibility: 6 miles , 10 km
2024/06/20 08:50 EGQK 200850Z AUTO 29010KT 9999 NCD 16/10 Q1017
EGQS - Lossiemouth Raf, United Kingdom
Distance from station: N 133km
Updated: 20/06/2024 09:50
Few Clouds
Few Clouds
 Wind from WNW
Wind: WNW 16 mph , 26 km/h
Temperature: 15°C
Dew Point: 9°C
Humidity: 68%
Barometer: 1017 hPa
Clouds: Few Clouds
Visibility: 6 miles , 10 km
Cloud details: Few Clouds 701 m
2024/06/20 08:50 EGQS 200850Z 30014KT 9999 FEW023 15/09 Q1017 NOSIG RMK BLU BLU
 
EGPK - Prestwick(Civ/Na, United Kingdom
Distance from station: SW 148km
Updated: 20/06/2024 09:50
Mostly cloudy
Mostly cloudy
 Wind from SW
Wind: SW 8 mph , 13 km/h
Temperature: 14°C
Dew Point: 11°C
Humidity: 82%
Barometer: 1020 hPa
Clouds: Mostly cloudy
Visibility: 6 miles , 10 km
Cloud details: Partly cloudy 457 m
Mostly cloudy 762 m
2024/06/20 08:50 EGPK 200850Z 23007KT 190V260 9999 SCT015 BKN025 14/11 Q1020
EGQA - Tain Range (saws, United Kingdom
Distance from station: NNW 154km
Updated: 20/06/2024 09:50
Partly cloudy
Partly cloudy
 Wind from SW
Wind: SW 2 mph , 4 km/h
Temperature: 16°C
Dew Point: 9°C
Humidity: 63%
Barometer: 1017 hPa
Clouds: Partly cloudy
Visibility: 6 miles , 10 km
Cloud details: Partly cloudy 671 m
2024/06/20 08:50 EGQA 200850Z AUTO 23002KT 9999 SCT022/// 16/09 Q1017
 
EGQM - Boulmer, United Kingdom
Distance from station: SE 154km
Updated: 20/06/2024 09:50
Mostly cloudy
Mostly cloudy
 Wind from ESE
Wind: ESE 6 mph , 9 km/h
Temperature: 16°C
Dew Point: 11°C
Humidity: 72%
Barometer: 1019 hPa
Clouds: Mostly cloudy
Visibility: 6 miles , 10 km
Cloud details: Few Clouds 945 m
Mostly cloudy 2774 m
Mostly cloudy 3048 m
2024/06/20 08:50 EGQM 200850Z AUTO 11005KT 9999 FEW031/// BKN091/// BKN100/// 16/11 Q1019